Time;durP1;ratioP1;P1;durP2;ratioP2;P2;SDS_P1;SDS_P2;PMS_P1;PMS_P2;Temp;Humidity;BMP_temperature;BMP_pressure;BME280_temperature;BME280_humidity;BME280_pressure;Samples;Min_cycle;Max_cycle;Signal;HPM_P1;HPM_P2
2021/05/16 00:00:32;;;;;;;7.07;1.50;;;13.50;53.00;;;;;;5069301;28;20020;-71
2021/05/16 00:02:59;;;;;;;8.60;4.15;;;13.70;52.50;;;;;;4721128;28;10000537;-70
2021/05/16 00:05:30;;;;;;;1.88;0.88;;;13.80;52.60;;;;;;5066039;28;20024;-69
2021/05/16 00:07:58;;;;;;;13.32;6.82;;;14.00;51.30;;;;;;5059000;28;20594;-67
2021/05/16 00:10:27;;;;;;;3.40;1.25;;;14.30;51.60;;;;;;5063611;28;20392;-70
2021/05/16 00:12:57;;;;;;;10.68;2.28;;;14.50;49.30;;;;;;5065021;28;20028;-71
2021/05/16 00:15:26;;;;;;;8.95;2.65;;;14.70;47.80;;;;;;5065041;28;20467;-71
2021/05/16 00:17:54;;;;;;;6.65;1.40;;;14.80;47.10;;;;;;5066079;28;20116;-69
2021/05/16 00:20:25;;;;;;;12.23;1.48;;;14.70;46.60;;;;;;5065908;28;20036;-70
2021/05/16 00:22:53;;;;;;;3.90;0.90;;;14.70;46.50;;;;;;5065310;28;20016;-69
2021/05/16 00:25:22;;;;;;;1.50;0.90;;;14.80;46.00;;;;;;5064647;28;20107;-72
2021/05/16 00:27:49;;;;;;;3.45;0.85;;;15.00;45.40;;;;;;5066709;28;20024;-69
2021/05/16 00:30:19;;;;;;;1.30;0.70;;;15.10;44.70;;;;;;5068408;28;20031;-68
2021/05/16 00:32:47;;;;;;;5.20;2.42;;;15.30;45.30;;;;;;5068795;28;20059;-69
2021/05/16 00:35:17;;;;;;;5.43;1.30;;;15.40;46.10;;;;;;5067565;28;20129;-69
2021/05/16 00:37:45;;;;;;;11.30;1.60;;;15.60;46.20;;;;;;5066298;28;20587;-68
2021/05/16 00:40:13;;;;;;;6.85;0.93;;;15.80;44.70;;;;;;5069021;28;20047;-68
2021/05/16 00:42:40;;;;;;;4.25;1.38;;;16.00;44.60;;;;;;5068134;28;20017;-68
2021/05/16 00:45:14;;;;;;;6.13;1.98;;;16.20;48.00;;;;;;5066050;28;20050;-69
2021/05/16 00:47:50;;;;;;;12.02;4.03;;;16.40;45.30;;;;;;5068119;28;20024;-69
2021/05/16 00:50:20;;;;;;;6.57;2.42;;;16.50;47.50;;;;;;5066531;28;20500;-71
2021/05/16 00:52:48;;;;;;;2.97;1.15;;;16.50;42.60;;;;;;5062810;28;20032;-67
2021/05/16 00:55:17;;;;;;;5.65;1.00;;;16.40;41.10;;;;;;5066669;28;20042;-72
2021/05/16 00:57:45;;;;;;;2.25;1.42;;;16.20;39.90;;;;;;5058454;28;20081;-75
2021/05/16 01:00:15;;;;;;;9.00;2.17;;;16.30;42.80;;;;;;5065962;28;20511;-72
2021/05/16 01:02:43;;;;;;;3.55;0.95;;;16.40;41.00;;;;;;5061664;28;20029;-71
2021/05/16 01:05:13;;;;;;;10.20;2.40;;;16.40;42.90;;;;;;5061305;28;20030;-69
2021/05/16 01:07:41;;;;;;;7.93;4.85;;;16.60;40.10;;;;;;5062772;28;20083;-76
2021/05/16 01:10:10;;;;;;;17.27;3.45;;;16.50;39.40;;;;;;5064244;28;20530;-70
2021/05/16 01:12:44;;;;;;;3.10;1.15;;;16.60;38.80;;;;;;5067619;28;20067;-67
2021/05/16 01:15:14;;;;;;;10.73;1.17;;;16.60;38.90;;;;;;5065510;28;20033;-73
2021/05/16 01:17:43;;;;;;;6.68;1.10;;;16.60;40.10;;;;;;5067591;28;20082;-67
2021/05/16 01:20:17;;;;;;;3.95;1.08;;;16.60;41.50;;;;;;5065158;28;20451;-68
2021/05/16 01:22:50;;;;;;;6.55;1.40;;;16.80;40.90;;;;;;5066554;28;20065;-68
2021/05/16 01:25:18;;;;;;;9.93;1.08;;;17.00;40.90;;;;;;5067473;28;20103;-69
2021/05/16 01:27:46;;;;;;;3.33;0.80;;;16.90;40.80;;;;;;5062855;28;20056;-68
2021/05/16 01:30:15;;;;;;;4.13;1.05;;;17.10;42.30;;;;;;5064605;28;20036;-69
2021/05/16 01:32:42;;;;;;;6.70;0.93;;;17.20;43.00;;;;;;5058790;28;20025;-71
2021/05/16 01:35:10;;;;;;;11.30;1.77;;;17.40;39.40;;;;;;5058520;28;20673;-68
2021/05/16 01:37:37;;;;;;;12.05;1.77;;;17.30;38.70;;;;;;5064868;28;20020;-66
2021/05/16 01:40:07;;;;;;;2.83;1.02;;;17.10;40.80;;;;;;5065989;28;20025;-66
2021/05/16 01:42:34;;;;;;;0.90;0.52;;;17.30;42.10;;;;;;5066073;28;20021;-65
2021/05/16 01:45:04;;;;;;;1.65;0.40;;;17.40;37.00;;;;;;5066627;28;20032;-67
2021/05/16 01:47:32;;;;;;;1.13;0.60;;;17.30;38.50;;;;;;5067347;28;20446;-66
2021/05/16 01:50:11;;;;;;;2.75;0.70;;;17.30;41.20;;;;;;5068031;28;20024;-66
2021/05/16 01:52:42;;;;;;;1.35;0.70;;;17.60;40.50;;;;;;5061285;28;20383;-66
2021/05/16 01:55:11;;;;;;;1.83;0.68;;;17.90;39.80;;;;;;5059504;28;20097;-68
2021/05/16 01:57:38;;;;;;;1.65;0.68;;;18.00;38.90;;;;;;5066343;28;20040;-69
2021/05/16 02:00:12;;;;;;;1.88;1.00;;;18.00;36.90;;;;;;5067121;28;20070;-69
2021/05/16 02:02:40;;;;;;;1.95;0.50;;;17.90;38.30;;;;;;5066345;28;20027;-70
2021/05/16 02:05:10;;;;;;;1.25;0.40;;;17.90;39.50;;;;;;5066755;28;20025;-68
2021/05/16 02:07:38;;;;;;;1.33;0.50;;;17.90;37.80;;;;;;5065482;28;20037;-68
2021/05/16 02:10:06;;;;;;;1.63;0.40;;;17.90;36.20;;;;;;5065135;28;20029;-69
2021/05/16 02:12:34;;;;;;;0.95;0.50;;;18.00;38.50;;;;;;5066831;28;20032;-67
2021/05/16 02:15:01;;;;;;;1.00;0.35;;;18.10;39.00;;;;;;5069415;28;20028;-67
2021/05/16 02:17:29;;;;;;;1.27;0.57;;;18.20;36.10;;;;;;5065801;28;20021;-66
2021/05/16 02:20:00;;;;;;;1.23;0.60;;;18.40;36.50;;;;;;5108460;22;20045;-73
2021/05/16 02:22:27;;;;;;;1.45;0.35;;;18.30;32.40;;;;;;5064296;28;20024;-71
2021/05/16 02:24:55;;;;;;;1.17;0.80;;;18.40;34.10;;;;;;5072838;28;20607;-68
2021/05/16 02:27:22;;;;;;;2.15;0.95;;;18.40;34.00;;;;;;5069661;28;20107;-67
2021/05/16 02:29:51;;;;;;;2.58;1.20;;;18.50;34.70;;;;;;5082434;28;20059;-67
2021/05/16 02:32:19;;;;;;;1.25;0.52;;;18.60;35.00;;;;;;5074250;28;20056;-72
2021/05/16 02:34:47;;;;;;;1.95;1.15;;;18.70;31.30;;;;;;5073042;28;20102;-72
2021/05/16 02:37:14;;;;;;;2.13;1.20;;;18.60;33.10;;;;;;5067549;28;20115;-66
2021/05/16 02:39:42;;;;;;;1.52;0.30;;;18.50;33.50;;;;;;5068524;28;20453;-67
2021/05/16 02:42:09;;;;;;;1.77;1.30;;;18.60;31.30;;;;;;5068761;28;20035;-67
2021/05/16 02:44:36;;;;;;;1.30;0.75;;;18.50;33.50;;;;;;5067709;28;20143;-65
2021/05/16 02:47:04;;;;;;;1.75;0.50;;;18.50;35.60;;;;;;5068285;28;20058;-64
2021/05/16 02:49:31;;;;;;;4.53;2.20;;;18.70;31.60;;;;;;5072643;28;20025;-71
2021/05/16 02:51:59;;;;;;;2.60;1.45;;;18.80;34.30;;;;;;5071605;28;20015;-64
2021/05/16 02:54:26;;;;;;;2.72;1.58;;;18.90;32.00;;;;;;5067062;28;20028;-69
2021/05/16 02:56:53;;;;;;;1.77;0.88;;;19.00;34.90;;;;;;5067079;28;20025;-71
2021/05/16 02:59:23;;;;;;;1.10;0.73;;;19.20;32.90;;;;;;5067864;28;20016;-69
2021/05/16 03:01:50;;;;;;;1.15;1.00;;;19.10;31.00;;;;;;5059600;28;20036;-71
2021/05/16 03:04:18;;;;;;;0.65;0.35;;;19.10;31.90;;;;;;5067408;28;20029;-72
2021/05/16 03:06:45;;;;;;;1.98;0.55;;;19.10;30.40;;;;;;5070123;28;20025;-62
2021/05/16 03:09:12;;;;;;;1.30;0.68;;;19.10;32.00;;;;;;5065195;28;20029;-68
2021/05/16 03:11:40;;;;;;;0.80;0.70;;;19.30;29.40;;;;;;5066357;28;20534;-78
2021/05/16 03:14:08;;;;;;;1.95;0.50;;;19.30;30.30;;;;;;5068117;28;20017;-74
2021/05/16 03:16:36;;;;;;;0.60;0.38;;;19.40;31.00;;;;;;5067079;28;20052;-75
2021/05/16 03:19:04;;;;;;;0.80;0.40;;;19.40;30.00;;;;;;5062453;28;20071;-68
2021/05/16 03:21:31;;;;;;;2.20;1.10;;;19.40;29.50;;;;;;5068469;28;20457;-74
2021/05/16 03:23:59;;;;;;;0.95;0.68;;;19.10;29.50;;;;;;5073979;28;20196;-62
2021/05/16 03:26:29;;;;;;;0.70;0.30;;;18.90;30.00;;;;;;5071451;28;20025;-64
2021/05/16 03:28:56;;;;;;;0.75;0.47;;;19.00;29.90;;;;;;5070666;28;20632;-68
2021/05/16 03:31:24;;;;;;;0.98;0.68;;;18.90;29.90;;;;;;5073016;28;20428;-72
2021/05/16 03:33:51;;;;;;;3.45;0.63;;;18.90;30.70;;;;;;5072377;28;20020;-67
2021/05/16 03:36:18;;;;;;;1.73;0.45;;;19.00;30.00;;;;;;5072786;28;20020;-67
2021/05/16 03:38:46;;;;;;;4.00;0.80;;;19.00;29.70;;;;;;5070878;28;20040;-69
2021/05/16 03:41:13;;;;;;;1.27;0.80;;;19.00;30.80;;;;;;5072062;28;20067;-67
2021/05/16 03:43:40;;;;;;;0.70;0.50;;;19.00;29.50;;;;;;5072525;28;20023;-67
2021/05/16 03:46:07;;;;;;;1.27;0.65;;;19.10;30.80;;;;;;5072132;28;20035;-64
2021/05/16 03:48:35;;;;;;;1.52;0.68;;;19.10;31.60;;;;;;5072346;28;20094;-66
2021/05/16 03:51:02;;;;;;;1.05;0.60;;;19.20;32.00;;;;;;5071896;28;20021;-68
2021/05/16 03:53:29;;;;;;;1.65;0.45;;;19.40;31.40;;;;;;5070526;28;20456;-65
2021/05/16 03:55:57;;;;;;;1.60;0.38;;;19.60;33.20;;;;;;5070601;28;20480;-64
2021/05/16 03:58:24;;;;;;;1.27;0.68;;;19.70;30.90;;;;;;5072714;28;20103;-72
2021/05/16 04:00:52;;;;;;;1.80;0.60;;;19.80;31.00;;;;;;5072341;28;20017;-68
2021/05/16 04:03:19;;;;;;;1.98;1.00;;;19.70;30.30;;;;;;5071847;28;20039;-63
2021/05/16 04:05:46;;;;;;;1.13;0.70;;;19.80;31.50;;;;;;5072341;28;20027;-64
2021/05/16 04:08:14;;;;;;;1.85;1.00;;;19.60;31.30;;;;;;5068645;28;20036;-65
2021/05/16 04:10:41;;;;;;;0.93;0.57;;;19.60;31.30;;;;;;5071379;28;20036;-64
2021/05/16 04:13:08;;;;;;;2.55;1.83;;;19.80;31.60;;;;;;5067041;28;20039;-64
2021/05/16 04:15:35;;;;;;;4.03;1.40;;;19.80;29.90;;;;;;5069971;28;20060;-70
2021/05/16 04:18:07;;;;;;;3.03;1.60;;;19.70;31.10;;;;;;5070407;28;20036;-63
2021/05/16 04:20:36;;;;;;;1.63;0.60;;;19.90;30.90;;;;;;5070440;28;20017;-69
2021/05/16 04:23:03;;;;;;;1.23;0.65;;;20.00;30.40;;;;;;5071384;28;20025;-65
2021/05/16 04:25:30;;;;;;;1.08;0.77;;;20.10;32.30;;;;;;5070974;28;20111;-68
2021/05/16 04:27:58;;;;;;;1.38;1.08;;;20.10;31.40;;;;;;5069321;28;20496;-67
2021/05/16 04:30:25;;;;;;;1.50;0.77;;;20.20;31.60;;;;;;5074044;28;20047;-69
2021/05/16 04:32:52;;;;;;;1.20;0.47;;;20.20;31.20;;;;;;5070019;28;20025;-68
2021/05/16 04:35:20;;;;;;;3.80;0.60;;;20.10;30.50;;;;;;5071565;28;20046;-65
2021/05/16 04:37:47;;;;;;;1.63;0.70;;;20.20;31.40;;;;;;5070386;28;20024;-69
2021/05/16 04:40:15;;;;;;;3.63;1.92;;;20.20;32.80;;;;;;5071512;28;20028;-67
2021/05/16 04:42:42;;;;;;;2.30;1.20;;;20.30;32.80;;;;;;5071405;28;20023;-68
2021/05/16 04:45:10;;;;;;;3.13;0.75;;;20.40;32.80;;;;;;5071158;28;20432;-65
2021/05/16 04:47:38;;;;;;;1.23;0.43;;;20.40;32.80;;;;;;5070483;28;20024;-76
2021/05/16 04:50:06;;;;;;;0.50;0.40;;;20.40;32.50;;;;;;5062547;28;20087;-69
2021/05/16 04:52:34;;;;;;;0.63;0.38;;;20.30;30.80;;;;;;5070073;28;20032;-67
2021/05/16 04:55:01;;;;;;;1.17;0.43;;;20.20;31.40;;;;;;5070410;28;20104;-69
2021/05/16 04:57:28;;;;;;;1.50;0.55;;;20.20;31.90;;;;;;5070611;28;20048;-71
2021/05/16 04:59:56;;;;;;;4.40;0.60;;;20.20;32.90;;;;;;5070043;28;20109;-65
2021/05/16 05:02:24;;;;;;;1.55;0.70;;;20.30;33.20;;;;;;5070958;28;20051;-72
2021/05/16 05:04:52;;;;;;;0.68;0.50;;;20.30;31.50;;;;;;5070739;28;20020;-64
2021/05/16 05:07:19;;;;;;;1.00;0.45;;;20.10;33.30;;;;;;5068498;28;20541;-66
2021/05/16 05:09:46;;;;;;;1.80;0.80;;;20.20;31.80;;;;;;5069025;28;20281;-66
2021/05/16 05:12:14;;;;;;;1.02;0.55;;;20.00;33.10;;;;;;5070248;28;20024;-67
2021/05/16 05:14:41;;;;;;;1.67;1.17;;;20.00;33.00;;;;;;5069923;28;20362;-69
2021/05/16 05:17:09;;;;;;;0.85;0.50;;;20.00;32.60;;;;;;5069535;28;20305;-64
2021/05/16 05:19:36;;;;;;;1.25;0.80;;;20.10;33.60;;;;;;5069374;28;20173;-68
2021/05/16 05:22:04;;;;;;;1.35;0.60;;;20.40;32.20;;;;;;5068259;28;20038;-68
2021/05/16 05:24:31;;;;;;;0.90;0.40;;;20.50;31.80;;;;;;5068827;28;20027;-72
2021/05/16 05:26:58;;;;;;;1.10;0.57;;;20.60;32.50;;;;;;5068762;28;20020;-67
2021/05/16 05:29:26;;;;;;;1.30;0.60;;;20.70;32.10;;;;;;5069313;28;20393;-68
2021/05/16 05:31:53;;;;;;;1.98;0.60;;;20.60;31.90;;;;;;5068689;28;20020;-69
2021/05/16 05:34:24;;;;;;;1.67;0.70;;;20.60;31.70;;;;;;5068819;28;20099;-69
2021/05/16 05:36:55;;;;;;;1.05;0.73;;;20.50;31.10;;;;;;5069264;28;20020;-73
2021/05/16 05:39:23;;;;;;;1.15;0.65;;;20.50;31.80;;;;;;5068912;28;20024;-65
2021/05/16 05:41:50;;;;;;;1.17;0.68;;;20.70;31.30;;;;;;5069062;28;20038;-66
2021/05/16 05:44:17;;;;;;;1.13;0.80;;;20.80;30.50;;;;;;5066695;28;20020;-68
2021/05/16 05:46:45;;;;;;;2.80;0.60;;;20.90;31.30;;;;;;5069739;28;20025;-67
2021/05/16 05:49:12;;;;;;;2.03;0.70;;;21.00;31.50;;;;;;5069794;28;20024;-68
2021/05/16 05:51:40;;;;;;;0.47;0.40;;;21.10;31.80;;;;;;5069236;28;20029;-72
2021/05/16 05:54:07;;;;;;;3.70;1.38;;;21.00;30.70;;;;;;5067839;28;20025;-71
2021/05/16 05:56:37;;;;;;;5.63;2.28;;;20.40;31.20;;;;;;5069826;28;20108;-69
2021/05/16 05:59:05;;;;;;;2.00;1.25;;;19.90;32.20;;;;;;5068802;28;20081;-68
2021/05/16 06:01:32;;;;;;;1.08;0.98;;;19.40;33.70;;;;;;5069578;28;20551;-70
2021/05/16 06:03:59;;;;;;;1.65;0.68;;;19.00;33.90;;;;;;5074096;28;20066;-71
2021/05/16 06:06:27;;;;;;;2.60;1.40;;;18.80;33.80;;;;;;5068235;28;20020;-65
2021/05/16 06:08:54;;;;;;;3.15;1.10;;;18.50;34.80;;;;;;5067535;28;20024;-65
2021/05/16 06:11:21;;;;;;;2.65;1.65;;;18.30;35.80;;;;;;5063964;28;20556;-72
2021/05/16 06:13:49;;;;;;;2.53;0.82;;;18.20;37.50;;;;;;5069277;28;20137;-70
2021/05/16 06:16:16;;;;;;;2.17;0.70;;;18.10;37.50;;;;;;5068616;28;20025;-69
2021/05/16 06:18:43;;;;;;;3.78;2.05;;;18.00;37.10;;;;;;5068961;28;20080;-65
2021/05/16 06:21:11;;;;;;;2.85;1.40;;;17.90;38.00;;;;;;5068095;28;20024;-66
2021/05/16 06:26:27;;;;;;;0.80;0.60;;;17.90;38.90;;;;;;5068808;28;20019;-70
2021/05/16 06:28:54;;;;;;;5.90;0.70;;;17.90;37.90;;;;;;5068812;28;20082;-65
2021/05/16 06:31:25;;;;;;;2.17;0.70;;;17.90;39.00;;;;;;4369743;28;9999997;-68
2021/05/16 06:33:52;;;;;;;0.40;0.40;;;17.90;38.60;;;;;;5064329;28;20082;-71
2021/05/16 06:36:20;;;;;;;1.45;0.77;;;18.20;36.60;;;;;;5070035;28;20036;-70
2021/05/16 06:38:47;;;;;;;1.50;0.50;;;18.30;35.90;;;;;;5063182;28;20377;-68
2021/05/16 06:41:15;;;;;;;1.02;0.70;;;18.50;35.70;;;;;;5069621;28;20078;-69
2021/05/16 06:43:43;;;;;;;1.60;1.02;;;18.60;35.10;;;;;;5065914;28;20377;-65
2021/05/16 06:46:10;;;;;;;2.80;1.77;;;18.40;36.20;;;;;;5066684;28;20028;-72
2021/05/16 06:48:38;;;;;;;3.17;2.30;;;18.30;36.30;;;;;;5070084;28;20028;-67
2021/05/16 06:51:05;;;;;;;2.67;1.63;;;18.10;36.90;;;;;;5065571;28;20025;-71
2021/05/16 06:53:34;;;;;;;5.03;3.05;;;17.60;38.00;;;;;;5066892;28;20460;-70
2021/05/16 06:56:01;;;;;;;3.78;2.35;;;17.10;39.00;;;;;;5070844;28;20097;-71
2021/05/16 06:58:29;;;;;;;2.53;1.42;;;16.60;39.40;;;;;;5070984;28;20126;-72
2021/05/16 07:00:56;;;;;;;2.78;1.10;;;16.20;40.30;;;;;;5068039;28;20020;-73
2021/05/16 07:03:24;;;;;;;3.30;1.40;;;15.90;41.20;;;;;;5065969;28;20104;-72
2021/05/16 07:05:51;;;;;;;2.78;1.13;;;15.60;41.90;;;;;;5064658;28;20030;-68
2021/05/16 07:08:19;;;;;;;2.15;1.40;;;15.30;42.40;;;;;;5066126;28;20025;-66
2021/05/16 07:10:46;;;;;;;4.38;1.40;;;15.10;43.00;;;;;;5067149;28;20046;-68
2021/05/16 07:13:14;;;;;;;2.10;1.48;;;15.00;43.70;;;;;;5060703;28;20044;-75
2021/05/16 07:15:41;;;;;;;1.70;1.15;;;14.70;44.70;;;;;;5065450;28;20082;-73
2021/05/16 07:18:09;;;;;;;2.30;1.60;;;14.40;45.60;;;;;;5065726;28;20064;-74
2021/05/16 07:20:36;;;;;;;2.15;1.30;;;14.20;45.10;;;;;;5066803;28;20029;-70
2021/05/16 07:23:03;;;;;;;3.72;1.50;;;14.10;44.80;;;;;;5066073;28;20519;-75
2021/05/16 07:25:31;;;;;;;1.92;1.38;;;14.00;45.80;;;;;;5066494;28;20071;-72
2021/05/16 07:27:58;;;;;;;2.47;1.63;;;13.90;46.30;;;;;;5066966;28;20028;-74
2021/05/16 07:30:26;;;;;;;3.25;2.10;;;14.00;45.40;;;;;;5066507;28;20036;-71
2021/05/16 07:32:53;;;;;;;3.55;2.25;;;14.00;45.20;;;;;;5066612;28;20025;-76
2021/05/16 07:35:21;;;;;;;3.05;1.75;;;14.00;44.50;;;;;;5065691;28;20024;-70
2021/05/16 07:37:48;;;;;;;2.75;1.27;;;14.10;44.20;;;;;;5060270;28;20021;-73
2021/05/16 07:40:16;;;;;;;2.30;1.55;;;14.00;43.20;;;;;;5067848;28;20071;-74
2021/05/16 07:42:43;;;;;;;2.00;1.50;;;14.00;42.50;;;;;;5066639;28;20035;-77
2021/05/16 07:45:12;;;;;;;3.22;1.83;;;13.90;41.40;;;;;;5064683;28;20476;-72
2021/05/16 07:47:40;;;;;;;12.05;1.95;;;14.00;40.80;;;;;;5065749;28;20373;-71
2021/05/16 07:50:09;;;;;;;5.53;1.50;;;14.10;41.20;;;;;;5066743;28;20032;-71
2021/05/16 07:52:37;;;;;;;2.88;1.23;;;13.90;42.50;;;;;;5066331;28;20117;-76
2021/05/16 07:55:07;;;;;;;2.30;1.20;;;13.90;44.50;;;;;;5059388;28;20059;-68
2021/05/16 07:57:35;;;;;;;2.70;1.27;;;13.70;45.30;;;;;;5066351;28;20024;-69
2021/05/16 08:00:06;;;;;;;2.47;0.70;;;13.50;47.10;;;;;;5065639;28;20025;-72
2021/05/16 08:02:33;;;;;;;3.38;1.00;;;13.30;47.30;;;;;;5065615;28;20070;-72
2021/05/16 08:05:02;;;;;;;1.02;0.70;;;13.10;47.80;;;;;;5065723;28;20066;-71
2021/05/16 08:07:29;;;;;;;2.13;1.10;;;13.00;48.70;;;;;;5066279;28;20137;-75
2021/05/16 08:09:56;;;;;;;3.60;1.45;;;12.70;49.90;;;;;;5066132;28;20052;-70
2021/05/16 08:12:24;;;;;;;2.17;1.20;;;12.50;51.00;;;;;;5057258;28;20067;-73
2021/05/16 08:14:51;;;;;;;2.70;1.00;;;12.30;50.50;;;;;;5061490;28;20017;-77
2021/05/16 08:17:18;;;;;;;3.65;1.10;;;12.20;51.20;;;;;;5063221;28;20028;-69
2021/05/16 08:19:46;;;;;;;8.35;1.55;;;12.10;52.80;;;;;;5062990;28;20036;-76
2021/05/16 08:22:13;;;;;;;6.38;1.60;;;12.00;52.40;;;;;;5062135;28;20754;-72
2021/05/16 08:24:41;;;;;;;6.40;1.30;;;11.90;53.20;;;;;;5062047;28;20028;-70
2021/05/16 08:27:09;;;;;;;3.17;1.40;;;11.70;53.60;;;;;;5055060;28;20037;-73
2021/05/16 08:29:36;;;;;;;4.10;1.50;;;11.60;54.50;;;;;;5053295;28;20027;-68
2021/05/16 08:32:05;;;;;;;10.45;2.10;;;11.50;55.90;;;;;;5061273;28;20064;-70
2021/05/16 08:34:34;;;;;;;9.38;2.28;;;11.40;54.60;;;;;;5061241;28;20035;-66
2021/05/16 08:37:07;;;;;;;6.78;2.38;;;11.50;54.40;;;;;;5058770;28;20037;-65
2021/05/16 08:39:33;;;;;;;;;;;11.40;54.60;;;;;;5061086;28;20031;-69
2021/05/16 08:42:01;;;;;;;3.95;1.50;;;11.50;53.80;;;;;;5061961;28;19908;-64
2021/05/16 08:44:30;;;;;;;3.15;1.70;;;11.60;52.10;;;;;;5061954;28;20028;-66
2021/05/16 08:46:59;;;;;;;5.85;1.70;;;11.80;50.80;;;;;;5056443;28;20424;-72
2021/05/16 08:49:26;;;;;;;2.33;1.50;;;12.00;50.10;;;;;;5062520;28;20498;-71
2021/05/16 08:51:54;;;;;;;2.85;1.40;;;12.10;50.00;;;;;;5060207;28;20127;-72
2021/05/16 08:54:24;;;;;;;1.23;0.82;;;12.10;49.70;;;;;;5061773;28;20055;-74
2021/05/16 08:56:53;;;;;;;2.22;0.85;;;12.20;48.50;;;;;;5061263;28;20036;-69
2021/05/16 08:59:23;;;;;;;2.65;1.00;;;12.20;48.60;;;;;;5062413;28;20028;-70
2021/05/16 09:02:00;;;;;;;3.00;1.10;;;12.20;48.40;;;;;;5062531;28;20025;-72
2021/05/16 09:06:59;;;;;;;5.50;1.02;;;12.00;48.30;;;;;;5065142;28;20421;-71
2021/05/16 09:09:39;;;;;;;2.55;1.15;;;12.00;47.90;;;;;;5061728;28;20029;-73
2021/05/16 09:12:14;;;;;;;1.65;1.13;;;11.90;48.60;;;;;;5061291;28;20035;-71
2021/05/16 09:14:42;;;;;;;2.63;1.42;;;12.00;47.90;;;;;;5059209;28;20032;-76
2021/05/16 09:17:24;;;;;;;5.68;1.52;;;12.00;47.80;;;;;;5060906;28;20037;-70
2021/05/16 09:19:53;;;;;;;17.55;10.80;;;11.80;48.50;;;;;;5056175;28;20040;-73
2021/05/16 09:22:31;;;;;;;4.07;2.15;;;11.80;49.10;;;;;;5061480;28;20113;-65
2021/05/16 09:25:30;;;;;;;4.93;3.45;;;11.70;49.50;;;;;;5061280;28;20381;-72
2021/05/16 09:28:19;;;;;;;6.25;3.83;;;11.70;49.80;;;;;;5055680;28;20101;-68
2021/05/16 09:30:46;;;;;;;5.85;2.35;;;11.70;48.90;;;;;;5059772;28;20052;-66
2021/05/16 09:33:14;;;;;;;2.38;1.38;;;11.50;49.70;;;;;;5060890;28;20028;-69
2021/05/16 09:35:56;;;;;;;3.28;1.48;;;11.40;49.80;;;;;;5060614;28;20036;-69
2021/05/16 09:38:23;;;;;;;1.42;1.05;;;11.20;51.50;;;;;;5060798;28;20027;-66
2021/05/16 09:40:57;;;;;;;2.95;1.13;;;11.00;52.70;;;;;;5060126;28;20020;-68
2021/05/16 09:43:29;;;;;;;1.77;1.08;;;10.80;53.10;;;;;;5060113;28;20020;-65
2021/05/16 09:46:08;;;;;;;1.52;1.10;;;10.60;53.70;;;;;;5060374;28;20533;-64
2021/05/16 09:48:42;;;;;;;2.22;1.20;;;10.40;55.40;;;;;;5061747;28;20024;-65
2021/05/16 09:51:15;;;;;;;2.00;1.27;;;10.20;56.30;;;;;;5060914;28;20039;-67
2021/05/16 09:54:11;;;;;;;4.75;1.65;;;10.30;54.50;;;;;;5059590;28;20636;-67
2021/05/16 09:56:43;;;;;;;1.63;1.10;;;10.30;54.70;;;;;;5050243;28;20802;-65
2021/05/16 09:59:13;;;;;;;3.35;1.27;;;10.30;54.20;;;;;;5058778;28;20075;-64
2021/05/16 10:01:41;;;;;;;6.00;1.27;;;10.30;54.50;;;;;;5059088;28;20017;-67
2021/05/16 10:04:09;;;;;;;3.47;1.42;;;10.30;53.80;;;;;;5058214;28;20027;-65
2021/05/16 10:06:36;;;;;;;3.22;1.67;;;10.60;52.80;;;;;;5059756;28;20337;-65
2021/05/16 10:09:04;;;;;;;6.07;2.08;;;10.70;52.60;;;;;;5060002;28;20533;-65
2021/05/16 10:11:32;;;;;;;6.30;2.80;;;10.80;52.60;;;;;;5059123;28;20538;-64
2021/05/16 10:14:20;;;;;;;4.82;1.60;;;10.90;52.60;;;;;;5056008;28;20062;-64
2021/05/16 10:16:49;;;;;;;9.23;1.48;;;11.00;52.30;;;;;;5058060;28;20032;-65
2021/05/16 10:19:25;;;;;;;5.18;1.33;;;11.30;51.60;;;;;;5058136;28;20056;-66
2021/05/16 10:22:26;;;;;;;3.50;1.65;;;11.40;51.20;;;;;;5058647;28;20020;-69
2021/05/16 10:24:54;;;;;;;6.60;1.75;;;11.40;51.50;;;;;;5044144;28;20579;-64
2021/05/16 10:27:34;;;;;;;5.15;1.55;;;11.40;51.60;;;;;;5060951;28;20027;-65
2021/05/16 10:30:05;;;;;;;4.28;1.73;;;11.40;51.80;;;;;;5060511;28;20438;-70
2021/05/16 10:32:38;;;;;;;2.45;1.15;;;11.30;52.10;;;;;;5062677;28;20659;-70
2021/05/16 10:35:08;;;;;;;3.22;2.15;;;11.30;52.30;;;;;;5060365;28;21460;-68
2021/05/16 10:37:44;;;;;;;4.93;1.30;;;11.20;52.70;;;;;;5061590;28;20115;-71
2021/05/16 10:40:26;;;;;;;4.57;1.92;;;11.20;52.60;;;;;;5060367;28;20043;-63
2021/05/16 10:43:02;;;;;;;3.77;1.50;;;11.20;52.80;;;;;;5061027;28;20029;-64
2021/05/16 10:45:35;;;;;;;2.30;1.15;;;11.10;53.20;;;;;;5061921;28;20034;-63
2021/05/16 10:48:07;;;;;;;3.22;1.20;;;11.10;53.50;;;;;;5061134;28;20033;-69
2021/05/16 10:50:40;;;;;;;2.95;1.30;;;11.10;53.60;;;;;;5058996;28;20032;-68
2021/05/16 10:53:10;;;;;;;;;;;11.10;53.70;;;;;;5061367;28;20032;-69
2021/05/16 10:56:05;;;;;;;4.85;1.10;;;11.00;54.10;;;;;;5061283;28;20364;-68
2021/05/16 10:58:42;;;;;;;2.78;1.10;;;10.90;54.50;;;;;;5050681;28;20036;-67
2021/05/16 11:01:17;;;;;;;3.30;1.38;;;10.90;55.00;;;;;;5061591;28;20033;-64
2021/05/16 11:03:53;;;;;;;3.42;1.17;;;10.90;54.60;;;;;;5063363;28;20027;-64
2021/05/16 11:06:22;;;;;;;2.72;1.25;;;10.90;54.70;;;;;;5062590;28;20022;-65
2021/05/16 11:08:49;;;;;;;4.45;1.67;;;10.90;54.90;;;;;;5063350;28;20036;-68
2021/05/16 11:11:30;;;;;;;2.35;1.02;;;10.90;54.80;;;;;;5061821;28;20485;-67
2021/05/16 11:13:57;;;;;;;2.40;1.20;;;10.70;55.60;;;;;;5059510;28;20617;-67
2021/05/16 11:16:25;;;;;;;2.90;1.20;;;10.70;55.30;;;;;;5062933;28;20032;-67
2021/05/16 11:18:52;;;;;;;1.75;1.00;;;10.60;55.60;;;;;;5062660;28;20101;-64
2021/05/16 11:21:21;;;;;;;3.65;1.40;;;10.70;55.50;;;;;;5063285;28;20100;-66
2021/05/16 11:23:50;;;;;;;1.90;1.10;;;10.60;55.80;;;;;;5062127;28;20784;-68
2021/05/16 11:26:23;;;;;;;2.70;1.38;;;10.50;56.40;;;;;;5062438;28;20039;-67
2021/05/16 11:28:56;;;;;;;2.38;1.23;;;10.30;56.50;;;;;;5061799;28;20024;-64
2021/05/16 11:31:26;;;;;;;6.85;1.58;;;10.30;57.10;;;;;;5060331;28;20028;-64
2021/05/16 11:33:55;;;;;;;4.78;1.58;;;10.30;57.20;;;;;;5061060;28;20036;-67
2021/05/16 11:36:27;;;;;;;2.60;1.25;;;10.40;56.80;;;;;;5059352;28;20515;-65
2021/05/16 11:39:00;;;;;;;5.60;1.30;;;10.30;57.50;;;;;;5061553;28;20443;-66
2021/05/16 11:41:35;;;;;;;3.90;1.90;;;10.10;58.00;;;;;;4707182;28;9999656;-63
2021/05/16 11:44:10;;;;;;;7.93;2.00;;;10.00;58.20;;;;;;5062187;28;20374;-62
2021/05/16 11:46:43;;;;;;;4.90;1.40;;;9.90;58.50;;;;;;5062687;28;20717;-63
2021/05/16 11:49:13;;;;;;;3.35;1.10;;;9.90;58.30;;;;;;5061345;28;20297;-63
2021/05/16 11:51:40;;;;;;;4.50;1.45;;;10.00;58.40;;;;;;5064005;28;20062;-62
2021/05/16 11:54:12;;;;;;;4.18;1.58;;;10.00;58.40;;;;;;5061003;28;20028;-67
2021/05/16 11:56:46;;;;;;;6.13;1.55;;;10.10;58.10;;;;;;5062308;28;20599;-63
2021/05/16 11:59:14;;;;;;;5.80;1.40;;;10.20;57.60;;;;;;5060677;28;20040;-63
2021/05/16 12:01:45;;;;;;;13.63;2.35;;;10.20;57.50;;;;;;5061391;28;20021;-68
2021/05/16 12:04:17;;;;;;;10.00;2.50;;;10.20;57.10;;;;;;5061294;28;20381;-67
2021/05/16 12:06:53;;;;;;;6.90;2.40;;;10.30;56.80;;;;;;5062237;28;20021;-67
2021/05/16 12:09:26;;;;;;;7.28;1.67;;;10.30;57.10;;;;;;5063304;28;20046;-67
2021/05/16 12:11:53;;;;;;;;;;;10.30;57.10;;;;;;5061281;28;20024;-63
2021/05/16 12:14:30;;;;;;;4.10;1.52;;;10.20;57.50;;;;;;5074134;28;19920;-64
2021/05/16 12:16:59;;;;;;;2.58;1.15;;;10.10;57.90;;;;;;5062620;28;20381;-67
2021/05/16 12:19:35;;;;;;;4.13;1.42;;;10.10;58.20;;;;;;5062339;28;20033;-65
2021/05/16 12:22:05;;;;;;;4.28;1.17;;;10.10;58.00;;;;;;5062064;28;20086;-68
2021/05/16 12:24:36;;;;;;;4.30;1.52;;;10.10;57.40;;;;;;5059305;28;20067;-64
2021/05/16 12:27:06;;;;;;;3.95;1.35;;;10.20;58.00;;;;;;5059242;28;20399;-68
2021/05/16 12:29:35;;;;;;;6.95;1.48;;;10.20;57.10;;;;;;5060555;28;20016;-64
2021/05/16 12:32:03;;;;;;;6.07;1.40;;;10.20;57.00;;;;;;5062210;28;20029;-66
2021/05/16 12:34:31;;;;;;;7.28;1.10;;;10.20;57.30;;;;;;5063502;28;20024;-68
2021/05/16 12:37:02;;;;;;;4.43;1.00;;;10.10;57.90;;;;;;5062814;28;20037;-69
2021/05/16 12:39:45;;;;;;;3.38;1.20;;;10.10;57.20;;;;;;5062718;28;20381;-68
2021/05/16 12:42:28;;;;;;;4.75;1.65;;;10.20;56.80;;;;;;5063464;28;20055;-67
2021/05/16 12:45:13;;;;;;;7.05;1.20;;;10.30;56.60;;;;;;5064315;28;20027;-63
2021/05/16 12:47:41;;;;;;;10.18;1.58;;;10.30;55.60;;;;;;5064461;28;20572;-66
2021/05/16 12:50:11;;;;;;;6.10;1.45;;;10.40;55.40;;;;;;5065187;28;20428;-62
2021/05/16 12:52:38;;;;;;;10.40;2.00;;;10.40;55.50;;;;;;5065233;28;20419;-62
2021/05/16 12:55:06;;;;;;;9.20;2.67;;;10.30;55.30;;;;;;5062378;28;20085;-68
2021/05/16 12:57:45;;;;;;;20.83;3.25;;;10.30;55.10;;;;;;5064414;28;20036;-68
2021/05/16 13:00:13;;;;;;;8.65;1.98;;;10.30;55.10;;;;;;5063272;28;20035;-64
2021/05/16 13:02:40;;;;;;;5.45;1.50;;;10.40;55.00;;;;;;5064307;28;20035;-63
2021/05/16 13:05:17;;;;;;;10.65;1.65;;;10.30;55.10;;;;;;5063498;28;20028;-63